createdAt,value
2018-03-29T00:00:33.456Z,4.03
2018-03-29T00:02:59.868Z,3.93
2018-03-29T00:05:26.271Z,3.30
2018-03-29T00:07:52.675Z,4.43
2018-03-29T00:10:19.093Z,4.17
2018-03-29T00:12:45.494Z,3.70
2018-03-29T00:15:11.945Z,4.17
2018-03-29T00:17:38.405Z,4.47
2018-03-29T00:20:04.900Z,4.30
2018-03-29T00:22:32.050Z,4.70
2018-03-29T00:24:59.242Z,4.13
2018-03-29T00:27:25.643Z,4.20
2018-03-29T00:29:52.846Z,4.27
2018-03-29T00:32:19.342Z,4.60
2018-03-29T00:34:45.755Z,4.10
2018-03-29T00:37:13.000Z,4.00
2018-03-29T00:39:40.351Z,4.00
2018-03-29T00:42:06.751Z,4.93
2018-03-29T00:44:33.154Z,4.90
2018-03-29T00:47:00.451Z,5.10
2018-03-29T00:49:26.838Z,4.90
2018-03-29T00:51:53.416Z,4.60
2018-03-29T00:54:19.828Z,4.40
2018-03-29T00:56:46.232Z,4.17
2018-03-29T00:59:12.650Z,4.27
2018-03-29T01:01:39.113Z,5.03
2018-03-29T01:04:05.512Z,4.13
2018-03-29T01:06:32.749Z,4.40
2018-03-29T01:08:59.155Z,4.37
2018-03-29T01:11:25.539Z,4.57
2018-03-29T01:13:52.693Z,4.90
2018-03-29T01:16:19.852Z,4.40
2018-03-29T01:18:47.064Z,3.80
2018-03-29T01:21:13.467Z,4.23
2018-03-29T01:23:39.970Z,4.90
2018-03-29T01:26:06.372Z,3.43
2018-03-29T01:28:32.793Z,4.50
2018-03-29T01:30:59.212Z,3.30
2018-03-29T01:33:25.673Z,4.13
2018-03-29T01:35:52.821Z,3.80
2018-03-29T01:38:20.002Z,4.00
2018-03-29T01:40:46.402Z,3.70
2018-03-29T01:43:12.830Z,3.00
2018-03-29T01:45:39.298Z,3.53
2018-03-29T01:48:06.442Z,3.53
2018-03-29T01:50:32.872Z,3.67
2018-03-29T01:52:59.320Z,3.33
2018-03-29T01:55:25.726Z,3.33
2018-03-29T01:57:52.889Z,3.80
2018-03-29T02:00:20.111Z,3.23
2018-03-29T02:02:46.493Z,3.70
2018-03-29T02:05:12.883Z,3.17
2018-03-29T02:07:39.359Z,3.63
2018-03-29T02:10:05.759Z,3.50
2018-03-29T02:12:32.897Z,4.10
2018-03-29T02:14:59.322Z,3.67
2018-03-29T02:17:25.726Z,4.23
2018-03-29T02:19:52.173Z,4.63
2018-03-29T02:22:18.621Z,4.60
2018-03-29T02:24:45.030Z,4.20
2018-03-29T02:27:11.571Z,3.83
2018-03-29T02:29:38.024Z,4.80
2018-03-29T02:32:05.218Z,4.30
2018-03-29T02:34:31.620Z,5.00
2018-03-29T02:37:05.078Z,4.80
2018-03-29T02:39:31.468Z,4.17
2018-03-29T02:41:57.885Z,4.83
2018-03-29T02:44:24.405Z,4.40
2018-03-29T02:46:51.588Z,4.70
2018-03-29T02:49:18.092Z,4.40
2018-03-29T02:51:44.664Z,4.00
2018-03-29T02:54:11.124Z,4.13
2018-03-29T02:56:37.594Z,4.10
2018-03-29T02:59:04.955Z,4.13
2018-03-29T03:01:32.178Z,3.63
2018-03-29T03:03:58.634Z,4.40
2018-03-29T03:06:25.054Z,4.10
2018-03-29T03:08:51.580Z,4.30
2018-03-29T03:11:19.488Z,4.20
2018-03-29T03:13:46.797Z,3.93
2018-03-29T03:16:13.291Z,3.60
2018-03-29T03:18:40.417Z,4.20
2018-03-29T03:21:10.888Z,3.63
2018-03-29T03:23:39.214Z,4.00
2018-03-29T03:26:05.653Z,3.70
2018-03-29T03:28:40.494Z,3.87
2018-03-29T03:31:06.987Z,3.80
2018-03-29T03:33:33.474Z,3.07
2018-03-29T03:35:59.878Z,3.10
2018-03-29T03:38:27.100Z,3.47
2018-03-29T03:40:56.943Z,3.23
2018-03-29T03:43:28.354Z,3.40
2018-03-29T03:45:54.758Z,3.03
2018-03-29T03:48:21.891Z,2.80
2018-03-29T03:50:48.336Z,3.33
2018-03-29T03:53:14.754Z,2.90
2018-03-29T03:55:41.896Z,3.30
2018-03-29T03:58:09.079Z,3.90
2018-03-29T04:00:35.572Z,4.20
2018-03-29T04:03:02.038Z,3.10
2018-03-29T04:05:28.642Z,2.83
2018-03-29T04:07:55.179Z,3.57
2018-03-29T04:10:21.713Z,3.70
2018-03-29T04:12:48.147Z,4.03
2018-03-29T04:15:14.552Z,3.67
2018-03-29T04:17:41.004Z,3.40
2018-03-29T04:20:07.894Z,3.73
2018-03-29T04:22:34.368Z,3.57
2018-03-29T04:25:00.926Z,3.90
2018-03-29T04:27:27.366Z,3.87
2018-03-29T04:29:54.595Z,3.83
2018-03-29T04:32:21.129Z,4.17
2018-03-29T04:34:47.575Z,4.83
2018-03-29T04:37:13.974Z,4.20
2018-03-29T04:39:40.409Z,4.40
2018-03-29T04:42:06.924Z,4.90
2018-03-29T04:44:33.316Z,4.20
2018-03-29T04:46:59.772Z,4.67
2018-03-29T04:49:26.246Z,4.33
2018-03-29T04:51:52.637Z,4.87
2018-03-29T04:54:19.799Z,4.67
2018-03-29T04:56:46.227Z,5.20
2018-03-29T04:59:12.730Z,5.83
2018-03-29T05:01:39.959Z,5.47
2018-03-29T05:04:06.414Z,5.50
2018-03-29T05:06:32.823Z,5.27
2018-03-29T05:08:59.238Z,5.00
2018-03-29T05:11:25.684Z,6.10
2018-03-29T05:13:52.128Z,6.07
2018-03-29T05:16:18.529Z,6.00
2018-03-29T05:18:44.972Z,5.60
2018-03-29T05:21:11.388Z,5.87
2018-03-29T05:23:37.823Z,6.30
2018-03-29T05:26:06.336Z,6.13
2018-03-29T05:28:32.752Z,6.63
2018-03-29T05:30:59.187Z,6.50
2018-03-29T05:33:25.661Z,6.63
2018-03-29T05:35:52.806Z,6.77
2018-03-29T05:38:19.244Z,6.30
2018-03-29T05:40:45.824Z,6.40
2018-03-29T05:43:12.247Z,7.40
2018-03-29T05:45:38.686Z,7.27
2018-03-29T05:48:05.162Z,7.80
2018-03-29T05:50:31.588Z,7.23
2018-03-29T05:52:58.132Z,6.67
2018-03-29T05:55:24.685Z,7.83
2018-03-29T05:57:51.128Z,8.27
2018-03-29T06:00:18.339Z,7.63
2018-03-29T06:02:44.921Z,7.83
2018-03-29T06:05:12.063Z,9.20
2018-03-29T06:07:39.214Z,7.70
2018-03-29T06:10:06.394Z,7.40
2018-03-29T06:12:32.823Z,8.60
2018-03-29T06:15:05.307Z,8.03
2018-03-29T06:17:31.747Z,9.03
2018-03-29T06:19:58.170Z,8.97
2018-03-29T06:22:24.594Z,8.30
2018-03-29T06:24:51.034Z,8.43
2018-03-29T06:27:17.632Z,8.60
2018-03-29T06:29:44.052Z,8.87
2018-03-29T06:32:10.500Z,8.50
2018-03-29T06:34:37.033Z,8.30
2018-03-29T06:37:03.451Z,8.50
2018-03-29T06:39:29.900Z,8.90
2018-03-29T06:41:57.179Z,11.00
2018-03-29T06:44:23.893Z,9.40
2018-03-29T06:46:50.327Z,9.20
2018-03-29T06:49:16.764Z,10.20
2018-03-29T06:51:43.931Z,9.90
2018-03-29T06:54:11.120Z,10.00
2018-03-29T06:56:37.551Z,9.70
2018-03-29T06:59:04.140Z,9.77
2018-03-29T07:01:30.752Z,9.43
2018-03-29T07:03:57.150Z,10.53
2018-03-29T07:06:23.575Z,9.30
2018-03-29T07:08:50.064Z,9.33
2018-03-29T07:11:17.325Z,9.50
2018-03-29T07:13:44.562Z,9.83
2018-03-29T07:16:10.980Z,9.80
2018-03-29T07:18:37.401Z,10.20
2018-03-29T07:21:03.864Z,10.60
2018-03-29T07:23:30.400Z,10.60
2018-03-29T07:25:57.582Z,11.63
2018-03-29T07:28:24.882Z,11.13
2018-03-29T07:30:51.442Z,11.63
2018-03-29T07:33:17.876Z,10.23
2018-03-29T07:35:45.149Z,9.70
2018-03-29T07:38:12.079Z,11.03
2018-03-29T07:40:39.230Z,10.30
2018-03-29T07:43:05.664Z,10.23
2018-03-29T07:45:32.843Z,10.67
2018-03-29T07:47:59.411Z,12.00
2018-03-29T07:50:26.051Z,12.70
2018-03-29T07:52:52.510Z,10.47
2018-03-29T07:55:19.907Z,10.63
2018-03-29T07:57:46.418Z,10.10
2018-03-29T08:00:13.598Z,11.53
2018-03-29T08:02:40.014Z,12.27
2018-03-29T08:05:07.157Z,10.70
2018-03-29T08:07:34.321Z,10.90
2018-03-29T08:10:00.756Z,10.37
2018-03-29T08:12:27.256Z,10.10
2018-03-29T08:14:54.427Z,10.03
2018-03-29T08:17:21.663Z,10.93
2018-03-29T08:19:48.813Z,11.10
2018-03-29T08:22:15.343Z,10.93
2018-03-29T08:24:41.759Z,12.07
2018-03-29T08:27:08.386Z,12.00
2018-03-29T08:29:34.947Z,10.83
2018-03-29T08:32:02.129Z,9.63
2018-03-29T08:34:29.349Z,9.80
2018-03-29T08:36:55.787Z,8.50
2018-03-29T08:39:22.255Z,10.13
2018-03-29T08:41:48.684Z,9.30
2018-03-29T08:44:15.111Z,9.13
2018-03-29T08:46:41.521Z,8.97
2018-03-29T08:49:07.955Z,9.47
2018-03-29T08:51:34.387Z,9.03
2018-03-29T08:54:00.852Z,9.73
2018-03-29T08:56:27.316Z,8.33
2018-03-29T08:58:53.884Z,7.93
2018-03-29T09:01:21.056Z,7.60
2018-03-29T09:03:49.031Z,6.37
2018-03-29T09:06:15.536Z,6.93
2018-03-29T09:08:41.938Z,6.20
2018-03-29T09:11:08.503Z,6.77
2018-03-29T09:13:35.701Z,6.70
2018-03-29T09:16:02.190Z,7.30
2018-03-29T09:18:29.355Z,6.83
2018-03-29T09:20:55.975Z,6.70
2018-03-29T09:23:22.375Z,6.80
2018-03-29T09:25:48.785Z,7.00
2018-03-29T09:28:15.222Z,8.57
2018-03-29T09:30:41.622Z,7.97
2018-03-29T09:33:14.979Z,6.67
2018-03-29T09:35:41.520Z,7.40
2018-03-29T09:38:08.185Z,6.30
2018-03-29T09:40:34.589Z,7.20
2018-03-29T09:43:01.020Z,7.07
2018-03-29T09:45:28.217Z,7.00
2018-03-29T09:47:55.548Z,8.00
2018-03-29T09:50:22.004Z,7.83
2018-03-29T09:52:49.145Z,8.77
2018-03-29T09:55:16.288Z,8.60
2018-03-29T09:57:43.507Z,7.97
2018-03-29T10:00:10.038Z,7.40
2018-03-29T10:02:36.511Z,8.07
2018-03-29T10:05:03.024Z,8.00
2018-03-29T10:07:33.539Z,8.20
2018-03-29T10:10:00.018Z,7.53
2018-03-29T10:12:27.355Z,7.23
2018-03-29T10:14:54.511Z,7.10
2018-03-29T10:17:20.979Z,7.10
2018-03-29T10:19:47.415Z,7.70
2018-03-29T10:22:13.812Z,6.97
2018-03-29T10:24:40.214Z,7.33
2018-03-29T10:27:06.676Z,7.20
2018-03-29T10:29:33.840Z,6.90
2018-03-29T10:32:01.026Z,6.50
2018-03-29T10:34:27.711Z,6.57
2018-03-29T10:36:54.864Z,5.80
2018-03-29T10:39:22.154Z,6.53
2018-03-29T10:41:48.599Z,6.40
2018-03-29T10:44:15.003Z,6.30
2018-03-29T10:46:42.155Z,6.47
2018-03-29T10:49:08.669Z,5.73
2018-03-29T10:51:35.853Z,5.20
2018-03-29T10:54:02.280Z,4.93
2018-03-29T10:56:28.730Z,5.70
2018-03-29T10:58:55.118Z,5.10
2018-03-29T11:01:21.600Z,5.20
2018-03-29T11:03:48.285Z,5.00
2018-03-29T11:06:14.745Z,4.63
2018-03-29T11:08:41.168Z,4.37
2018-03-29T11:11:08.585Z,4.10
2018-03-29T11:13:35.069Z,4.30
2018-03-29T11:16:01.469Z,5.23
2018-03-29T11:18:28.671Z,4.80
2018-03-29T11:20:55.160Z,4.53
2018-03-29T11:23:22.375Z,4.53
2018-03-29T11:25:48.944Z,4.60
2018-03-29T11:28:15.423Z,3.83
2018-03-29T11:30:41.855Z,4.50
2018-03-29T11:33:08.292Z,4.43
2018-03-29T11:35:34.753Z,4.20
2018-03-29T11:38:01.154Z,4.23
2018-03-29T11:40:27.611Z,4.00
2018-03-29T11:42:53.998Z,4.43
2018-03-29T11:45:21.987Z,4.10
2018-03-29T11:47:48.414Z,4.07
2018-03-29T11:50:14.810Z,4.00
2018-03-29T11:52:41.346Z,3.23
2018-03-29T11:55:09.274Z,3.47
2018-03-29T11:57:35.850Z,3.27
2018-03-29T12:00:03.100Z,2.47
2018-03-29T12:02:29.572Z,2.37
2018-03-29T12:04:56.004Z,2.97
2018-03-29T12:07:22.505Z,2.80
2018-03-29T12:09:49.754Z,2.50
2018-03-29T12:12:16.143Z,2.60
2018-03-29T12:14:42.547Z,2.83
2018-03-29T12:17:09.026Z,2.60
2018-03-29T12:19:35.491Z,2.20
2018-03-29T12:22:02.633Z,2.30
2018-03-29T12:24:29.836Z,2.00
2018-03-29T12:26:56.282Z,1.60
2018-03-29T12:29:22.684Z,1.80
2018-03-29T12:31:49.146Z,2.80
2018-03-29T12:34:15.610Z,8.77
2018-03-29T12:36:42.090Z,1.93
2018-03-29T12:39:08.588Z,2.20
2018-03-29T12:41:34.984Z,1.80
2018-03-29T12:44:01.395Z,2.60
2018-03-29T12:46:27.859Z,1.80
2018-03-29T12:48:54.344Z,3.00
2018-03-29T12:51:20.847Z,2.60
2018-03-29T12:53:47.319Z,2.30
2018-03-29T12:56:27.958Z,2.10
2018-03-29T12:58:54.384Z,2.67
2018-03-29T13:01:22.295Z,2.40
2018-03-29T13:03:48.699Z,2.40
2018-03-29T13:06:15.323Z,2.53
2018-03-29T13:08:41.863Z,2.23
2018-03-29T13:11:08.291Z,3.83
2018-03-29T13:13:34.717Z,2.97
2018-03-29T13:16:01.147Z,2.07
2018-03-29T13:18:27.572Z,2.40
2018-03-29T13:20:54.134Z,2.20
2018-03-29T13:23:21.313Z,2.83
2018-03-29T13:25:47.740Z,3.17
2018-03-29T13:28:14.455Z,2.77
2018-03-29T13:30:41.693Z,2.33
2018-03-29T13:33:08.220Z,2.60
2018-03-29T13:35:34.719Z,2.10
2018-03-29T13:38:01.214Z,2.40
2018-03-29T13:40:27.706Z,2.47
2018-03-29T13:42:54.168Z,2.20
2018-03-29T13:45:20.714Z,2.00
2018-03-29T13:47:47.904Z,2.30
2018-03-29T13:50:14.400Z,2.63
2018-03-29T13:52:40.816Z,2.30
2018-03-29T13:55:07.347Z,1.90
2018-03-29T13:57:33.829Z,1.93
2018-03-29T14:00:00.437Z,1.90
2018-03-29T14:02:26.975Z,2.43
2018-03-29T14:04:54.132Z,1.70
2018-03-29T14:07:20.594Z,2.20
2018-03-29T14:09:47.172Z,2.30
2018-03-29T14:12:13.632Z,1.83
2018-03-29T14:14:40.110Z,1.87
2018-03-29T14:17:06.566Z,2.60
2018-03-29T14:19:32.968Z,1.27
2018-03-29T14:21:59.362Z,1.53
2018-03-29T14:24:26.720Z,1.27
2018-03-29T14:26:53.969Z,1.57
2018-03-29T14:29:20.508Z,1.30
2018-03-29T14:31:47.768Z,1.50
2018-03-29T14:34:14.972Z,1.80
2018-03-29T14:36:41.374Z,1.60
2018-03-29T14:39:07.955Z,1.40
2018-03-29T14:41:34.437Z,1.50
2018-03-29T14:44:00.904Z,1.80
2018-03-29T14:46:27.355Z,1.53
2018-03-29T14:48:54.544Z,1.90
2018-03-29T14:51:20.955Z,2.40
2018-03-29T14:53:47.594Z,1.77
2018-03-29T14:56:14.015Z,1.70
2018-03-29T14:58:40.423Z,2.63
2018-03-29T15:01:07.243Z,2.17
2018-03-29T15:03:33.659Z,2.30
2018-03-29T15:06:00.081Z,2.03
2018-03-29T15:08:27.320Z,2.90
2018-03-29T15:10:54.463Z,2.10
2018-03-29T15:13:20.914Z,2.03
2018-03-29T15:15:47.382Z,3.20
2018-03-29T15:18:13.840Z,2.37
2018-03-29T15:20:40.388Z,2.67
2018-03-29T15:23:06.942Z,1.73
2018-03-29T15:25:33.345Z,2.43
2018-03-29T15:27:59.804Z,1.97
2018-03-29T15:30:26.448Z,2.30
2018-03-29T15:32:53.599Z,1.67
2018-03-29T15:35:20.019Z,1.70
2018-03-29T15:37:46.462Z,1.50
2018-03-29T15:40:13.679Z,1.87
2018-03-29T15:42:40.123Z,2.10
2018-03-29T15:45:06.558Z,2.10
2018-03-29T15:47:33.020Z,2.30
2018-03-29T15:49:59.555Z,1.70
2018-03-29T15:52:25.965Z,2.30
2018-03-29T15:54:52.421Z,2.20
2018-03-29T15:57:19.661Z,1.50
2018-03-29T15:59:46.107Z,2.17
2018-03-29T16:02:13.283Z,2.20
2018-03-29T16:04:39.750Z,2.00
2018-03-29T16:07:06.196Z,1.93
2018-03-29T16:09:32.704Z,1.73
2018-03-29T16:11:59.293Z,2.10
2018-03-29T16:14:25.816Z,1.97
2018-03-29T16:16:53.008Z,1.87
2018-03-29T16:19:19.408Z,2.17
2018-03-29T16:21:45.929Z,2.27
2018-03-29T16:24:13.192Z,2.30
2018-03-29T16:26:39.629Z,2.37
2018-03-29T16:29:07.589Z,2.00
2018-03-29T16:31:34.338Z,2.30
2018-03-29T16:34:00.863Z,1.83
2018-03-29T16:36:27.489Z,2.47
2018-03-29T16:38:53.932Z,2.83
2018-03-29T16:41:20.383Z,2.30
2018-03-29T16:43:47.581Z,1.70
2018-03-29T16:46:14.031Z,2.13
2018-03-29T16:48:40.469Z,1.93
2018-03-29T16:51:06.907Z,1.80
2018-03-29T16:53:33.453Z,1.70
2018-03-29T16:55:59.939Z,2.30
2018-03-29T16:58:26.537Z,1.93
2018-03-29T17:00:52.964Z,2.27
2018-03-29T17:03:19.411Z,2.10
2018-03-29T17:05:46.590Z,2.30
2018-03-29T17:08:13.018Z,2.03
2018-03-29T17:10:39.520Z,2.30
2018-03-29T17:13:06.752Z,2.27
2018-03-29T17:15:40.007Z,2.10
2018-03-29T17:18:06.514Z,2.10
2018-03-29T17:20:33.744Z,1.87
2018-03-29T17:23:00.227Z,1.80
2018-03-29T17:25:26.657Z,2.20
2018-03-29T17:27:53.154Z,2.33
2018-03-29T17:30:19.579Z,2.20
2018-03-29T17:32:46.198Z,2.20
2018-03-29T17:35:12.744Z,2.30
2018-03-29T17:37:39.236Z,2.10
2018-03-29T17:40:05.715Z,2.40
2018-03-29T17:42:32.180Z,2.20
2018-03-29T17:44:58.776Z,2.10
2018-03-29T17:47:25.206Z,1.70
2018-03-29T17:49:52.419Z,1.83
2018-03-29T17:52:18.852Z,2.63
2018-03-29T17:54:45.282Z,2.20
2018-03-29T17:57:11.680Z,2.30
2018-03-29T17:59:38.291Z,2.47
2018-03-29T18:02:04.797Z,2.20
2018-03-29T18:04:31.309Z,2.00
2018-03-29T18:06:57.791Z,2.35
2018-03-29T18:09:24.466Z,2.20
2018-03-29T18:11:51.625Z,2.77
2018-03-29T18:14:18.775Z,2.97
2018-03-29T18:16:45.961Z,3.40
2018-03-29T18:19:12.376Z,2.77
2018-03-29T18:21:38.800Z,2.63
2018-03-29T18:24:05.274Z,3.77
2018-03-29T18:26:31.723Z,4.00
2018-03-29T18:28:58.121Z,4.43
2018-03-29T18:31:24.761Z,2.57
2018-03-29T18:33:51.187Z,2.30
2018-03-29T18:36:17.591Z,3.20
2018-03-29T18:38:44.782Z,3.07
2018-03-29T18:41:11.209Z,3.30
2018-03-29T18:43:37.613Z,3.50
2018-03-29T18:46:04.788Z,2.87
2018-03-29T18:48:31.218Z,3.00
2018-03-29T18:50:57.653Z,3.20
2018-03-29T18:53:24.260Z,3.13
2018-03-29T18:55:51.430Z,3.03
2018-03-29T18:58:17.934Z,3.17
2018-03-29T19:00:44.453Z,2.90
2018-03-29T19:03:11.721Z,2.87
2018-03-29T19:05:38.193Z,2.60
2018-03-29T19:08:04.657Z,2.60
2018-03-29T19:10:31.075Z,2.50
2018-03-29T19:12:57.508Z,2.33
2018-03-29T19:15:23.943Z,2.83
2018-03-29T19:17:50.428Z,2.73
2018-03-29T19:20:16.841Z,2.80
2018-03-29T19:22:43.272Z,2.77
2018-03-29T19:25:10.698Z,3.10
2018-03-29T19:27:38.919Z,2.23
2018-03-29T19:30:13.600Z,2.60
2018-03-29T19:32:41.008Z,2.80
2018-03-29T19:35:07.447Z,4.10
2018-03-29T19:37:35.815Z,2.43
2018-03-29T19:40:02.654Z,2.50
2018-03-29T19:42:29.186Z,2.70
2018-03-29T19:44:56.393Z,3.30
2018-03-29T19:47:22.839Z,3.37
2018-03-29T19:49:49.322Z,2.87
2018-03-29T19:52:16.503Z,4.30
2018-03-29T19:54:42.961Z,2.77
2018-03-29T19:57:10.345Z,3.10
2018-03-29T19:59:36.880Z,3.57
2018-03-29T20:02:03.359Z,2.90
2018-03-29T20:04:29.787Z,2.97
2018-03-29T20:06:56.320Z,3.27
2018-03-29T20:09:22.769Z,3.63
2018-03-29T20:11:49.396Z,3.00
2018-03-29T20:14:15.906Z,3.60
2018-03-29T20:16:43.152Z,3.50
2018-03-29T20:19:09.543Z,4.50
2018-03-29T20:21:36.097Z,4.10
2018-03-29T20:24:02.750Z,4.17
2018-03-29T20:26:29.183Z,4.97
2018-03-29T20:28:56.463Z,5.53
2018-03-29T20:31:22.915Z,5.20
2018-03-29T20:33:49.369Z,5.30
2018-03-29T20:36:15.920Z,5.20
2018-03-29T20:38:42.362Z,4.73
2018-03-29T20:41:08.786Z,4.40
2018-03-29T20:43:35.368Z,4.00
2018-03-29T20:46:01.768Z,4.20
2018-03-29T20:48:28.181Z,3.90
2018-03-29T20:50:54.647Z,3.23
2018-03-29T20:53:21.279Z,4.10
2018-03-29T20:55:47.714Z,3.87
2018-03-29T20:58:14.260Z,3.80
2018-03-29T21:00:40.694Z,4.10
2018-03-29T21:03:07.911Z,3.83
2018-03-29T21:05:34.340Z,4.67
2018-03-29T21:08:08.707Z,4.00
2018-03-29T21:10:35.939Z,4.77
2018-03-29T21:13:03.187Z,4.07
2018-03-29T21:15:29.599Z,4.23
2018-03-29T21:17:56.162Z,4.40
2018-03-29T21:20:22.563Z,4.57
2018-03-29T21:22:48.976Z,3.87
2018-03-29T21:25:15.554Z,4.40
2018-03-29T21:27:41.990Z,4.00
2018-03-29T21:30:08.499Z,4.40
2018-03-29T21:32:35.843Z,3.97
2018-03-29T21:35:02.322Z,3.60
2018-03-29T21:37:28.770Z,4.80
2018-03-29T21:39:55.338Z,4.60
2018-03-29T21:42:21.807Z,3.27
2018-03-29T21:44:48.234Z,4.73
2018-03-29T21:47:14.662Z,4.50
2018-03-29T21:49:41.078Z,4.20
2018-03-29T21:52:07.546Z,5.23
2018-03-29T21:54:34.738Z,5.10
2018-03-29T21:57:01.148Z,5.53
2018-03-29T21:59:28.305Z,4.47
2018-03-29T22:01:54.818Z,5.27
2018-03-29T22:04:21.979Z,4.30
2018-03-29T22:06:49.218Z,4.57
2018-03-29T22:09:15.711Z,5.60
2018-03-29T22:11:53.022Z,3.93
2018-03-29T22:14:22.490Z,5.43
2018-03-29T22:16:50.862Z,4.40
2018-03-29T22:19:17.351Z,4.80
2018-03-29T22:21:44.598Z,4.57
2018-03-29T22:24:11.032Z,5.10
2018-03-29T22:26:37.460Z,4.53
2018-03-29T22:29:04.649Z,5.03
2018-03-29T22:31:31.979Z,5.10
2018-03-29T22:33:58.428Z,5.30
2018-03-29T22:36:25.623Z,5.00
2018-03-29T22:38:52.203Z,5.73
2018-03-29T22:41:18.664Z,5.20
2018-03-29T22:43:45.148Z,5.60
2018-03-29T22:46:11.677Z,5.43
2018-03-29T22:48:38.242Z,5.60
2018-03-29T22:51:04.997Z,4.97
2018-03-29T22:53:31.456Z,6.30
2018-03-29T22:55:57.861Z,4.63
2018-03-29T22:58:24.319Z,5.17
2018-03-29T23:00:50.715Z,5.43
2018-03-29T23:03:17.871Z,4.83
2018-03-29T23:05:44.337Z,5.30
2018-03-29T23:08:10.759Z,4.93
2018-03-29T23:10:37.154Z,5.17
2018-03-29T23:13:05.062Z,5.13
2018-03-29T23:15:32.472Z,4.97
2018-03-29T23:17:58.858Z,5.23
2018-03-29T23:20:25.278Z,6.10
2018-03-29T23:22:51.670Z,6.03
2018-03-29T23:25:18.059Z,5.17
2018-03-29T23:27:44.484Z,6.03
2018-03-29T23:30:10.905Z,5.80
2018-03-29T23:32:38.033Z,6.17
2018-03-29T23:35:04.459Z,5.40
2018-03-29T23:37:31.000Z,5.03
2018-03-29T23:39:58.166Z,6.07
2018-03-29T23:42:25.369Z,5.33
2018-03-29T23:44:51.782Z,6.50
2018-03-29T23:47:18.174Z,5.97
2018-03-29T23:49:44.610Z,6.37
2018-03-29T23:52:11.764Z,6.17
2018-03-29T23:54:38.918Z,5.90
2018-03-29T23:57:06.134Z,5.40
2018-03-29T23:59:33.309Z,6.90
